sensor_id;sensor_type;location;lat;lon;timestamp;P1;durP1;ratioP1;P2;durP2;ratioP2
28086;SDS011;15392;48.912;8.380;2023-02-01T00:01:59;1.63;;;1.52;;
28086;SDS011;15392;48.912;8.380;2023-02-01T00:04:25;1.55;;;1.45;;
28086;SDS011;15392;48.912;8.380;2023-02-01T00:06:51;1.23;;;1.23;;
28086;SDS011;15392;48.912;8.380;2023-02-01T00:09:17;1.08;;;1.08;;
28086;SDS011;15392;48.912;8.380;2023-02-01T00:11:42;2.25;;;1.15;;
28086;SDS011;15392;48.912;8.380;2023-02-01T00:14:08;1.10;;;1.10;;
28086;SDS011;15392;48.912;8.380;2023-02-01T00:16:34;1.10;;;1.10;;
28086;SDS011;15392;48.912;8.380;2023-02-01T00:19:02;1.20;;;1.20;;
28086;SDS011;15392;48.912;8.380;2023-02-01T00:21:37;1.23;;;1.23;;
28086;SDS011;15392;48.912;8.380;2023-02-01T00:24:04;1.00;;;1.00;;
28086;SDS011;15392;48.912;8.380;2023-02-01T00:26:40;0.93;;;0.93;;
28086;SDS011;15392;48.912;8.380;2023-02-01T00:29:10;0.70;;;0.70;;
28086;SDS011;15392;48.912;8.380;2023-02-01T00:31:42;0.60;;;0.60;;
28086;SDS011;15392;48.912;8.380;2023-02-01T00:34:09;0.82;;;0.82;;
28086;SDS011;15392;48.912;8.380;2023-02-01T00:36:41;0.90;;;0.90;;
28086;SDS011;15392;48.912;8.380;2023-02-01T00:39:08;0.80;;;0.80;;
28086;SDS011;15392;48.912;8.380;2023-02-01T00:41:34;0.90;;;0.90;;
28086;SDS011;15392;48.912;8.380;2023-02-01T00:44:00;0.70;;;0.70;;
28086;SDS011;15392;48.912;8.380;2023-02-01T00:46:26;0.73;;;0.73;;
28086;SDS011;15392;48.912;8.380;2023-02-01T00:48:52;0.70;;;0.70;;
28086;SDS011;15392;48.912;8.380;2023-02-01T00:51:21;0.60;;;0.60;;
28086;SDS011;15392;48.912;8.380;2023-02-01T00:53:49;0.65;;;0.65;;
28086;SDS011;15392;48.912;8.380;2023-02-01T00:56:15;0.50;;;0.50;;
28086;SDS011;15392;48.912;8.380;2023-02-01T00:58:42;0.60;;;0.60;;
28086;SDS011;15392;48.912;8.380;2023-02-01T01:01:09;0.90;;;0.90;;
28086;SDS011;15392;48.912;8.380;2023-02-01T01:03:44;0.68;;;0.68;;
28086;SDS011;15392;48.912;8.380;2023-02-01T01:06:19;1.67;;;0.60;;
28086;SDS011;15392;48.912;8.380;2023-02-01T01:08:52;0.60;;;0.60;;
28086;SDS011;15392;48.912;8.380;2023-02-01T01:11:21;0.70;;;0.70;;
28086;SDS011;15392;48.912;8.380;2023-02-01T01:13:53;1.00;;;1.00;;
28086;SDS011;15392;48.912;8.380;2023-02-01T01:16:21;0.90;;;0.90;;
28086;SDS011;15392;48.912;8.380;2023-02-01T01:18:48;0.80;;;0.80;;
28086;SDS011;15392;48.912;8.380;2023-02-01T01:21:15;0.55;;;0.55;;
28086;SDS011;15392;48.912;8.380;2023-02-01T01:23:42;0.50;;;0.50;;
28086;SDS011;15392;48.912;8.380;2023-02-01T01:26:11;0.60;;;0.60;;
28086;SDS011;15392;48.912;8.380;2023-02-01T01:28:40;0.90;;;0.90;;
28086;SDS011;15392;48.912;8.380;2023-02-01T01:31:10;0.80;;;0.80;;
28086;SDS011;15392;48.912;8.380;2023-02-01T01:33:37;0.75;;;0.75;;
28086;SDS011;15392;48.912;8.380;2023-02-01T01:36:07;0.90;;;0.90;;
28086;SDS011;15392;48.912;8.380;2023-02-01T01:38:37;0.82;;;0.82;;
28086;SDS011;15392;48.912;8.380;2023-02-01T01:41:07;0.90;;;0.90;;
28086;SDS011;15392;48.912;8.380;2023-02-01T01:43:46;0.80;;;0.80;;
28086;SDS011;15392;48.912;8.380;2023-02-01T01:46:36;0.82;;;0.82;;
28086;SDS011;15392;48.912;8.380;2023-02-01T01:52:10;1.00;;;1.00;;
28086;SDS011;15392;48.912;8.380;2023-02-01T01:54:30;0.85;;;0.85;;
28086;SDS011;15392;48.912;8.380;2023-02-01T01:57:04;0.60;;;0.60;;
28086;SDS011;15392;48.912;8.380;2023-02-01T01:59:38;0.75;;;0.75;;
28086;SDS011;15392;48.912;8.380;2023-02-01T02:02:07;0.60;;;0.60;;
28086;SDS011;15392;48.912;8.380;2023-02-01T02:04:34;0.88;;;0.88;;
28086;SDS011;15392;48.912;8.380;2023-02-01T02:07:05;0.80;;;0.80;;
28086;SDS011;15392;48.912;8.380;2023-02-01T02:09:38;0.70;;;0.70;;
28086;SDS011;15392;48.912;8.380;2023-02-01T02:12:05;0.80;;;0.80;;
28086;SDS011;15392;48.912;8.380;2023-02-01T02:14:31;0.80;;;0.80;;
28086;SDS011;15392;48.912;8.380;2023-02-01T02:34:38;0.70;;;0.70;;
28086;SDS011;15392;48.912;8.380;2023-02-01T02:40:26;0.60;;;0.60;;
28086;SDS011;15392;48.912;8.380;2023-02-01T02:43:03;0.65;;;0.65;;
28086;SDS011;15392;48.912;8.380;2023-02-01T02:46:01;0.80;;;0.80;;
28086;SDS011;15392;48.912;8.380;2023-02-01T02:49:12;0.80;;;0.80;;
28086;SDS011;15392;48.912;8.380;2023-02-01T02:54:35;0.90;;;0.90;;
28086;SDS011;15392;48.912;8.380;2023-02-01T02:57:23;0.90;;;0.90;;
28086;SDS011;15392;48.912;8.380;2023-02-01T03:00:14;0.77;;;0.77;;
28086;SDS011;15392;48.912;8.380;2023-02-01T03:03:02;0.90;;;0.90;;
28086;SDS011;15392;48.912;8.380;2023-02-01T03:05:47;0.80;;;0.80;;
28086;SDS011;15392;48.912;8.380;2023-02-01T03:08:25;0.60;;;0.60;;
28086;SDS011;15392;48.912;8.380;2023-02-01T03:16:28;0.77;;;0.77;;
28086;SDS011;15392;48.912;8.380;2023-02-01T03:19:05;1.00;;;1.00;;
28086;SDS011;15392;48.912;8.380;2023-02-01T03:21:48;0.73;;;0.73;;
28086;SDS011;15392;48.912;8.380;2023-02-01T03:27:20;0.70;;;0.70;;
28086;SDS011;15392;48.912;8.380;2023-02-01T03:29:59;0.80;;;0.80;;
28086;SDS011;15392;48.912;8.380;2023-02-01T03:32:43;0.77;;;0.77;;
28086;SDS011;15392;48.912;8.380;2023-02-01T03:35:32;0.80;;;0.80;;
28086;SDS011;15392;48.912;8.380;2023-02-01T03:41:13;0.77;;;0.77;;
28086;SDS011;15392;48.912;8.380;2023-02-01T03:47:05;0.50;;;0.50;;
28086;SDS011;15392;48.912;8.380;2023-02-01T03:49:54;0.35;;;0.35;;
28086;SDS011;15392;48.912;8.380;2023-02-01T03:52:30;0.50;;;0.50;;
28086;SDS011;15392;48.912;8.380;2023-02-01T03:55:07;0.70;;;0.70;;
28086;SDS011;15392;48.912;8.380;2023-02-01T03:57:35;0.52;;;0.52;;
28086;SDS011;15392;48.912;8.380;2023-02-01T04:00:09;0.55;;;0.55;;
28086;SDS011;15392;48.912;8.380;2023-02-01T04:02:47;0.50;;;0.50;;
28086;SDS011;15392;48.912;8.380;2023-02-01T04:05:13;0.60;;;0.60;;
28086;SDS011;15392;48.912;8.380;2023-02-01T04:07:39;0.40;;;0.40;;
28086;SDS011;15392;48.912;8.380;2023-02-01T04:10:05;0.68;;;0.68;;
28086;SDS011;15392;48.912;8.380;2023-02-01T04:12:32;0.57;;;0.57;;
28086;SDS011;15392;48.912;8.380;2023-02-01T04:14:58;0.52;;;0.52;;
28086;SDS011;15392;48.912;8.380;2023-02-01T04:17:23;0.55;;;0.55;;
28086;SDS011;15392;48.912;8.380;2023-02-01T04:19:49;0.30;;;0.30;;
28086;SDS011;15392;48.912;8.380;2023-02-01T04:22:15;0.50;;;0.50;;
28086;SDS011;15392;48.912;8.380;2023-02-01T04:24:41;0.30;;;0.30;;
28086;SDS011;15392;48.912;8.380;2023-02-01T04:27:06;0.55;;;0.55;;
28086;SDS011;15392;48.912;8.380;2023-02-01T04:29:33;0.43;;;0.43;;
28086;SDS011;15392;48.912;8.380;2023-02-01T04:31:59;0.32;;;0.32;;
28086;SDS011;15392;48.912;8.380;2023-02-01T04:34:24;0.30;;;0.30;;
28086;SDS011;15392;48.912;8.380;2023-02-01T04:36:51;0.40;;;0.40;;
28086;SDS011;15392;48.912;8.380;2023-02-01T04:39:17;0.38;;;0.38;;
28086;SDS011;15392;48.912;8.380;2023-02-01T04:41:43;0.25;;;0.25;;
28086;SDS011;15392;48.912;8.380;2023-02-01T04:44:18;0.30;;;0.30;;
28086;SDS011;15392;48.912;8.380;2023-02-01T04:46:44;0.20;;;0.20;;
28086;SDS011;15392;48.912;8.380;2023-02-01T04:49:12;0.40;;;0.40;;
28086;SDS011;15392;48.912;8.380;2023-02-01T04:51:39;0.38;;;0.38;;
28086;SDS011;15392;48.912;8.380;2023-02-01T04:54:05;2.05;;;0.40;;
28086;SDS011;15392;48.912;8.380;2023-02-01T04:56:32;0.30;;;0.30;;
28086;SDS011;15392;48.912;8.380;2023-02-01T04:59:00;0.35;;;0.35;;
28086;SDS011;15392;48.912;8.380;2023-02-01T05:01:27;0.28;;;0.28;;
28086;SDS011;15392;48.912;8.380;2023-02-01T05:03:53;0.43;;;0.43;;
28086;SDS011;15392;48.912;8.380;2023-02-01T05:06:19;0.30;;;0.30;;
28086;SDS011;15392;48.912;8.380;2023-02-01T05:08:45;0.40;;;0.40;;
28086;SDS011;15392;48.912;8.380;2023-02-01T05:11:11;0.50;;;0.40;;
28086;SDS011;15392;48.912;8.380;2023-02-01T05:13:56;0.47;;;0.47;;
28086;SDS011;15392;48.912;8.380;2023-02-01T05:16:24;0.50;;;0.50;;
28086;SDS011;15392;48.912;8.380;2023-02-01T05:18:50;0.80;;;0.80;;
28086;SDS011;15392;48.912;8.380;2023-02-01T05:21:16;0.73;;;0.73;;
28086;SDS011;15392;48.912;8.380;2023-02-01T05:23:42;0.60;;;0.60;;
28086;SDS011;15392;48.912;8.380;2023-02-01T05:26:26;0.65;;;0.65;;
28086;SDS011;15392;48.912;8.380;2023-02-01T05:28:52;0.60;;;0.60;;
28086;SDS011;15392;48.912;8.380;2023-02-01T05:31:18;0.70;;;0.70;;
28086;SDS011;15392;48.912;8.380;2023-02-01T05:33:44;0.70;;;0.70;;
28086;SDS011;15392;48.912;8.380;2023-02-01T05:36:09;0.80;;;0.80;;
28086;SDS011;15392;48.912;8.380;2023-02-01T05:38:35;0.50;;;0.50;;
28086;SDS011;15392;48.912;8.380;2023-02-01T05:41:01;0.80;;;0.80;;
28086;SDS011;15392;48.912;8.380;2023-02-01T05:43:27;0.90;;;0.90;;
28086;SDS011;15392;48.912;8.380;2023-02-01T05:45:52;0.73;;;0.73;;
28086;SDS011;15392;48.912;8.380;2023-02-01T05:48:18;0.82;;;0.82;;
28086;SDS011;15392;48.912;8.380;2023-02-01T05:50:44;0.80;;;0.80;;
28086;SDS011;15392;48.912;8.380;2023-02-01T05:53:10;1.00;;;1.00;;
28086;SDS011;15392;48.912;8.380;2023-02-01T05:55:37;0.98;;;0.98;;
28086;SDS011;15392;48.912;8.380;2023-02-01T05:58:03;1.27;;;1.17;;
28086;SDS011;15392;48.912;8.380;2023-02-01T06:00:30;1.00;;;1.00;;
28086;SDS011;15392;48.912;8.380;2023-02-01T06:02:56;1.02;;;1.00;;
28086;SDS011;15392;48.912;8.380;2023-02-01T06:05:22;1.02;;;1.02;;
28086;SDS011;15392;48.912;8.380;2023-02-01T06:07:48;1.02;;;1.02;;
28086;SDS011;15392;48.912;8.380;2023-02-01T06:10:15;0.70;;;0.70;;
28086;SDS011;15392;48.912;8.380;2023-02-01T06:12:43;0.80;;;0.80;;
28086;SDS011;15392;48.912;8.380;2023-02-01T06:15:10;0.82;;;0.82;;
28086;SDS011;15392;48.912;8.380;2023-02-01T06:17:37;1.00;;;1.00;;
28086;SDS011;15392;48.912;8.380;2023-02-01T06:20:06;1.20;;;1.20;;
28086;SDS011;15392;48.912;8.380;2023-02-01T06:22:33;1.10;;;1.00;;
28086;SDS011;15392;48.912;8.380;2023-02-01T06:25:01;1.20;;;1.20;;
28086;SDS011;15392;48.912;8.380;2023-02-01T06:27:32;0.80;;;0.80;;
28086;SDS011;15392;48.912;8.380;2023-02-01T06:29:59;1.08;;;1.08;;
28086;SDS011;15392;48.912;8.380;2023-02-01T06:32:25;1.10;;;1.10;;
28086;SDS011;15392;48.912;8.380;2023-02-01T06:34:51;0.95;;;0.95;;
28086;SDS011;15392;48.912;8.380;2023-02-01T06:37:20;2.20;;;2.10;;
28086;SDS011;15392;48.912;8.380;2023-02-01T06:39:48;3.53;;;3.33;;
28086;SDS011;15392;48.912;8.380;2023-02-01T06:42:14;2.40;;;2.30;;
28086;SDS011;15392;48.912;8.380;2023-02-01T06:44:40;2.30;;;2.20;;
28086;SDS011;15392;48.912;8.380;2023-02-01T06:47:06;1.98;;;1.83;;
28086;SDS011;15392;48.912;8.380;2023-02-01T06:49:32;5.13;;;2.33;;
28086;SDS011;15392;48.912;8.380;2023-02-01T06:51:58;1.63;;;1.52;;
28086;SDS011;15392;48.912;8.380;2023-02-01T06:54:27;1.55;;;1.50;;
28086;SDS011;15392;48.912;8.380;2023-02-01T06:56:53;1.42;;;1.33;;
28086;SDS011;15392;48.912;8.380;2023-02-01T06:59:19;1.30;;;1.30;;
28086;SDS011;15392;48.912;8.380;2023-02-01T07:01:45;1.20;;;1.20;;
28086;SDS011;15392;48.912;8.380;2023-02-01T07:04:11;1.15;;;1.15;;
28086;SDS011;15392;48.912;8.380;2023-02-01T07:06:38;1.10;;;1.10;;
28086;SDS011;15392;48.912;8.380;2023-02-01T07:09:04;1.10;;;1.10;;
28086;SDS011;15392;48.912;8.380;2023-02-01T07:11:31;0.93;;;0.93;;
28086;SDS011;15392;48.912;8.380;2023-02-01T07:13:57;1.60;;;1.50;;
28086;SDS011;15392;48.912;8.380;2023-02-01T07:16:24;1.30;;;1.30;;
28086;SDS011;15392;48.912;8.380;2023-02-01T07:18:50;1.20;;;1.20;;
28086;SDS011;15392;48.912;8.380;2023-02-01T07:21:17;1.42;;;1.33;;
28086;SDS011;15392;48.912;8.380;2023-02-01T07:23:44;2.90;;;2.80;;
28086;SDS011;15392;48.912;8.380;2023-02-01T07:26:11;5.43;;;4.93;;
28086;SDS011;15392;48.912;8.380;2023-02-01T07:28:38;7.55;;;6.97;;
28086;SDS011;15392;48.912;8.380;2023-02-01T07:31:05;4.30;;;4.10;;
28086;SDS011;15392;48.912;8.380;2023-02-01T07:33:46;4.10;;;3.80;;
28086;SDS011;15392;48.912;8.380;2023-02-01T07:36:17;2.58;;;2.47;;
28086;SDS011;15392;48.912;8.380;2023-02-01T07:38:43;2.65;;;2.55;;
28086;SDS011;15392;48.912;8.380;2023-02-01T07:41:11;2.13;;;2.03;;
28086;SDS011;15392;48.912;8.380;2023-02-01T07:43:37;1.52;;;1.42;;
28086;SDS011;15392;48.912;8.380;2023-02-01T07:46:03;1.95;;;1.85;;
28086;SDS011;15392;48.912;8.380;2023-02-01T07:48:30;4.35;;;4.05;;
28086;SDS011;15392;48.912;8.380;2023-02-01T07:50:57;3.63;;;3.42;;
28086;SDS011;15392;48.912;8.380;2023-02-01T07:53:32;2.13;;;2.03;;
28086;SDS011;15392;48.912;8.380;2023-02-01T07:55:59;5.05;;;4.75;;
28086;SDS011;15392;48.912;8.380;2023-02-01T07:58:25;2.15;;;2.05;;
28086;SDS011;15392;48.912;8.380;2023-02-01T08:00:52;1.70;;;1.60;;
28086;SDS011;15392;48.912;8.380;2023-02-01T08:03:37;1.48;;;1.40;;
28086;SDS011;15392;48.912;8.380;2023-02-01T08:06:03;1.20;;;1.20;;
28086;SDS011;15392;48.912;8.380;2023-02-01T08:08:30;1.20;;;1.20;;
28086;SDS011;15392;48.912;8.380;2023-02-01T08:10:59;1.60;;;1.50;;
28086;SDS011;15392;48.912;8.380;2023-02-01T08:15:52;1.00;;;1.00;;
28086;SDS011;15392;48.912;8.380;2023-02-01T08:20:48;0.90;;;0.90;;
28086;SDS011;15392;48.912;8.380;2023-02-01T08:23:14;1.10;;;1.00;;
28086;SDS011;15392;48.912;8.380;2023-02-01T08:25:39;1.52;;;1.20;;
28086;SDS011;15392;48.912;8.380;2023-02-01T08:28:06;0.90;;;0.90;;
28086;SDS011;15392;48.912;8.380;2023-02-01T08:30:32;0.70;;;0.70;;
28086;SDS011;15392;48.912;8.380;2023-02-01T08:32:58;0.70;;;0.70;;
28086;SDS011;15392;48.912;8.380;2023-02-01T08:35:24;0.63;;;0.63;;
28086;SDS011;15392;48.912;8.380;2023-02-01T08:37:50;1.10;;;1.00;;
28086;SDS011;15392;48.912;8.380;2023-02-01T08:40:15;1.10;;;1.00;;
28086;SDS011;15392;48.912;8.380;2023-02-01T08:42:41;1.30;;;1.00;;
28086;SDS011;15392;48.912;8.380;2023-02-01T08:45:24;0.80;;;0.80;;
28086;SDS011;15392;48.912;8.380;2023-02-01T08:47:53;1.80;;;0.82;;
28086;SDS011;15392;48.912;8.380;2023-02-01T08:50:19;1.02;;;0.98;;
28086;SDS011;15392;48.912;8.380;2023-02-01T08:52:46;1.23;;;1.10;;
28086;SDS011;15392;48.912;8.380;2023-02-01T08:55:13;1.23;;;1.13;;
28086;SDS011;15392;48.912;8.380;2023-02-01T08:57:39;1.45;;;0.70;;
28086;SDS011;15392;48.912;8.380;2023-02-01T09:00:07;2.17;;;2.08;;
28086;SDS011;15392;48.912;8.380;2023-02-01T09:02:37;1.13;;;1.13;;
28086;SDS011;15392;48.912;8.380;2023-02-01T09:05:03;1.33;;;1.00;;
28086;SDS011;15392;48.912;8.380;2023-02-01T09:07:30;1.05;;;1.05;;
28086;SDS011;15392;48.912;8.380;2023-02-01T09:09:56;0.95;;;0.95;;
28086;SDS011;15392;48.912;8.380;2023-02-01T09:12:26;1.05;;;1.05;;
28086;SDS011;15392;48.912;8.380;2023-02-01T09:14:54;1.05;;;1.05;;
28086;SDS011;15392;48.912;8.380;2023-02-01T09:17:24;0.90;;;0.90;;
28086;SDS011;15392;48.912;8.380;2023-02-01T09:19:51;0.80;;;0.80;;
28086;SDS011;15392;48.912;8.380;2023-02-01T09:22:17;2.15;;;2.05;;
28086;SDS011;15392;48.912;8.380;2023-02-01T09:24:43;2.22;;;2.13;;
28086;SDS011;15392;48.912;8.380;2023-02-01T09:27:09;1.40;;;1.30;;
28086;SDS011;15392;48.912;8.380;2023-02-01T09:29:35;1.33;;;1.13;;
28086;SDS011;15392;48.912;8.380;2023-02-01T09:32:01;1.17;;;1.08;;
28086;SDS011;15392;48.912;8.380;2023-02-01T09:34:27;1.25;;;0.93;;
28086;SDS011;15392;48.912;8.380;2023-02-01T09:36:53;1.20;;;1.15;;
28086;SDS011;15392;48.912;8.380;2023-02-01T09:39:19;1.10;;;1.00;;
28086;SDS011;15392;48.912;8.380;2023-02-01T09:44:24;1.30;;;1.20;;
28086;SDS011;15392;48.912;8.380;2023-02-01T09:47:04;1.33;;;1.15;;
28086;SDS011;15392;48.912;8.380;2023-02-01T09:49:59;1.17;;;1.08;;
28086;SDS011;15392;48.912;8.380;2023-02-01T09:52:59;1.00;;;1.00;;
28086;SDS011;15392;48.912;8.380;2023-02-01T09:55:36;1.10;;;1.00;;
28086;SDS011;15392;48.912;8.380;2023-02-01T10:01:01;2.63;;;1.15;;
28086;SDS011;15392;48.912;8.380;2023-02-01T10:03:29;1.38;;;1.27;;
28086;SDS011;15392;48.912;8.380;2023-02-01T10:20:44;1.63;;;1.33;;
28086;SDS011;15392;48.912;8.380;2023-02-01T10:23:33;1.52;;;1.30;;
28086;SDS011;15392;48.912;8.380;2023-02-01T10:26:15;1.60;;;1.40;;
28086;SDS011;15392;48.912;8.380;2023-02-01T10:28:49;1.70;;;1.55;;
28086;SDS011;15392;48.912;8.380;2023-02-01T10:31:18;0.82;;;0.82;;
28086;SDS011;15392;48.912;8.380;2023-02-01T10:33:49;1.23;;;1.13;;
28086;SDS011;15392;48.912;8.380;2023-02-01T10:36:45;1.48;;;1.30;;
28086;SDS011;15392;48.912;8.380;2023-02-01T10:39:47;1.15;;;0.95;;
28086;SDS011;15392;48.912;8.380;2023-02-01T10:42:15;1.20;;;1.10;;
28086;SDS011;15392;48.912;8.380;2023-02-01T10:44:48;1.20;;;1.10;;
28086;SDS011;15392;48.912;8.380;2023-02-01T10:47:14;1.60;;;1.40;;
28086;SDS011;15392;48.912;8.380;2023-02-01T10:52:12;1.33;;;1.23;;
28086;SDS011;15392;48.912;8.380;2023-02-01T10:54:43;1.20;;;1.20;;
28086;SDS011;15392;48.912;8.380;2023-02-01T10:57:10;2.67;;;1.30;;
28086;SDS011;15392;48.912;8.380;2023-02-01T10:59:53;1.92;;;1.40;;
28086;SDS011;15392;48.912;8.380;2023-02-01T11:02:26;1.75;;;1.60;;
28086;SDS011;15392;48.912;8.380;2023-02-01T11:05:04;3.33;;;3.08;;
28086;SDS011;15392;48.912;8.380;2023-02-01T11:07:35;3.30;;;3.00;;
28086;SDS011;15392;48.912;8.380;2023-02-01T11:10:03;1.90;;;1.80;;
28086;SDS011;15392;48.912;8.380;2023-02-01T11:12:31;1.50;;;1.40;;
28086;SDS011;15392;48.912;8.380;2023-02-01T11:17:47;1.38;;;1.27;;
28086;SDS011;15392;48.912;8.380;2023-02-01T11:23:04;2.13;;;1.90;;
28086;SDS011;15392;48.912;8.380;2023-02-01T11:25:30;1.80;;;1.48;;
28086;SDS011;15392;48.912;8.380;2023-02-01T11:28:00;1.60;;;1.50;;
28086;SDS011;15392;48.912;8.380;2023-02-01T11:30:30;1.30;;;1.20;;
28086;SDS011;15392;48.912;8.380;2023-02-01T11:32:59;1.40;;;1.20;;
28086;SDS011;15392;48.912;8.380;2023-02-01T11:35:28;1.10;;;1.10;;
28086;SDS011;15392;48.912;8.380;2023-02-01T11:37:55;1.38;;;1.27;;
28086;SDS011;15392;48.912;8.380;2023-02-01T11:40:29;0.88;;;0.88;;
28086;SDS011;15392;48.912;8.380;2023-02-01T11:43:08;1.67;;;1.58;;
28086;SDS011;15392;48.912;8.380;2023-02-01T11:48:25;1.40;;;1.30;;
28086;SDS011;15392;48.912;8.380;2023-02-01T12:00:06;1.50;;;1.40;;
28086;SDS011;15392;48.912;8.380;2023-02-01T12:11:48;1.27;;;1.17;;
28086;SDS011;15392;48.912;8.380;2023-02-01T12:17:38;1.70;;;1.60;;
28086;SDS011;15392;48.912;8.380;2023-02-01T12:26:06;1.73;;;1.63;;
28086;SDS011;15392;48.912;8.380;2023-02-01T12:31:43;2.20;;;1.30;;
28086;SDS011;15392;48.912;8.380;2023-02-01T12:37:57;2.85;;;1.52;;
28086;SDS011;15392;48.912;8.380;2023-02-01T12:43:51;1.50;;;1.33;;
28086;SDS011;15392;48.912;8.380;2023-02-01T12:46:36;2.22;;;1.30;;
28086;SDS011;15392;48.912;8.380;2023-02-01T12:51:51;1.58;;;1.48;;
28086;SDS011;15392;48.912;8.380;2023-02-01T12:57:16;2.17;;;1.20;;
28086;SDS011;15392;48.912;8.380;2023-02-01T12:59:59;1.30;;;1.20;;
28086;SDS011;15392;48.912;8.380;2023-02-01T13:03:26;1.27;;;1.20;;
28086;SDS011;15392;48.912;8.380;2023-02-01T13:06:13;1.40;;;1.30;;
28086;SDS011;15392;48.912;8.380;2023-02-01T13:08:54;1.40;;;1.30;;
28086;SDS011;15392;48.912;8.380;2023-02-01T13:11:52;1.85;;;1.55;;
28086;SDS011;15392;48.912;8.380;2023-02-01T13:17:05;1.60;;;1.50;;
28086;SDS011;15392;48.912;8.380;2023-02-01T13:19:44;1.23;;;1.13;;
28086;SDS011;15392;48.912;8.380;2023-02-01T13:22:29;3.17;;;2.95;;
28086;SDS011;15392;48.912;8.380;2023-02-01T13:25:04;1.90;;;1.80;;
28086;SDS011;15392;48.912;8.380;2023-02-01T13:27:55;2.60;;;1.70;;
28086;SDS011;15392;48.912;8.380;2023-02-01T13:30:27;2.10;;;1.42;;
28086;SDS011;15392;48.912;8.380;2023-02-01T13:45:27;1.45;;;1.35;;
28086;SDS011;15392;48.912;8.380;2023-02-01T13:47:49;1.45;;;1.35;;
28086;SDS011;15392;48.912;8.380;2023-02-01T13:50:25;2.17;;;2.08;;
28086;SDS011;15392;48.912;8.380;2023-02-01T13:53:13;1.42;;;1.33;;
28086;SDS011;15392;48.912;8.380;2023-02-01T13:55:46;1.85;;;1.38;;
28086;SDS011;15392;48.912;8.380;2023-02-01T14:03:46;1.70;;;1.58;;
28086;SDS011;15392;48.912;8.380;2023-02-01T14:11:48;1.88;;;1.70;;
28086;SDS011;15392;48.912;8.380;2023-02-01T14:19:21;1.60;;;1.50;;
28086;SDS011;15392;48.912;8.380;2023-02-01T14:21:51;2.63;;;1.83;;
28086;SDS011;15392;48.912;8.380;2023-02-01T14:26:59;1.48;;;1.25;;
28086;SDS011;15392;48.912;8.380;2023-02-01T14:29:39;2.58;;;1.52;;
28086;SDS011;15392;48.912;8.380;2023-02-01T14:35:05;3.47;;;1.90;;
28086;SDS011;15392;48.912;8.380;2023-02-01T14:37:40;2.05;;;1.52;;
28086;SDS011;15392;48.912;8.380;2023-02-01T14:47:47;2.10;;;1.88;;
28086;SDS011;15392;48.912;8.380;2023-02-01T14:50:40;1.40;;;1.30;;
28086;SDS011;15392;48.912;8.380;2023-02-01T15:01:33;1.20;;;1.10;;
28086;SDS011;15392;48.912;8.380;2023-02-01T15:09:26;2.47;;;2.13;;
28086;SDS011;15392;48.912;8.380;2023-02-01T15:14:34;1.75;;;1.65;;
28086;SDS011;15392;48.912;8.380;2023-02-01T15:17:21;1.70;;;1.50;;
28086;SDS011;15392;48.912;8.380;2023-02-01T15:19:55;2.33;;;2.10;;
28086;SDS011;15392;48.912;8.380;2023-02-01T15:22:23;2.25;;;2.05;;
28086;SDS011;15392;48.912;8.380;2023-02-01T15:24:53;2.45;;;2.25;;
28086;SDS011;15392;48.912;8.380;2023-02-01T15:27:24;3.05;;;2.47;;
28086;SDS011;15392;48.912;8.380;2023-02-01T15:29:52;3.78;;;2.70;;
28086;SDS011;15392;48.912;8.380;2023-02-01T15:32:31;4.70;;;2.55;;
28086;SDS011;15392;48.912;8.380;2023-02-01T15:35:00;2.72;;;2.45;;
28086;SDS011;15392;48.912;8.380;2023-02-01T15:37:27;3.00;;;2.75;;
28086;SDS011;15392;48.912;8.380;2023-02-01T15:42:51;4.35;;;4.00;;
28086;SDS011;15392;48.912;8.380;2023-02-01T15:45:19;3.70;;;3.40;;
28086;SDS011;15392;48.912;8.380;2023-02-01T15:47:57;4.25;;;3.88;;
28086;SDS011;15392;48.912;8.380;2023-02-01T15:50:24;5.57;;;5.00;;
28086;SDS011;15392;48.912;8.380;2023-02-01T15:52:54;7.30;;;5.70;;
28086;SDS011;15392;48.912;8.380;2023-02-01T15:55:25;4.75;;;4.32;;
28086;SDS011;15392;48.912;8.380;2023-02-01T15:58:18;2.65;;;2.35;;
28086;SDS011;15392;48.912;8.380;2023-02-01T16:00:47;2.15;;;2.00;;
28086;SDS011;15392;48.912;8.380;2023-02-01T16:05:55;2.05;;;1.70;;
28086;SDS011;15392;48.912;8.380;2023-02-01T16:08:25;3.17;;;2.60;;
28086;SDS011;15392;48.912;8.380;2023-02-01T16:11:19;1.90;;;1.58;;
28086;SDS011;15392;48.912;8.380;2023-02-01T16:14:06;2.63;;;2.00;;
28086;SDS011;15392;48.912;8.380;2023-02-01T16:16:31;2.70;;;2.28;;
28086;SDS011;15392;48.912;8.380;2023-02-01T16:18:57;3.20;;;2.90;;
28086;SDS011;15392;48.912;8.380;2023-02-01T16:21:23;3.30;;;3.00;;
28086;SDS011;15392;48.912;8.380;2023-02-01T16:23:49;2.17;;;2.03;;
28086;SDS011;15392;48.912;8.380;2023-02-01T16:26:16;2.53;;;2.33;;
28086;SDS011;15392;48.912;8.380;2023-02-01T16:28:42;2.20;;;1.90;;
28086;SDS011;15392;48.912;8.380;2023-02-01T16:31:12;3.03;;;2.47;;
28086;SDS011;15392;48.912;8.380;2023-02-01T16:33:49;3.03;;;2.78;;
28086;SDS011;15392;48.912;8.380;2023-02-01T16:36:16;2.67;;;2.47;;
28086;SDS011;15392;48.912;8.380;2023-02-01T16:38:42;4.15;;;3.85;;
28086;SDS011;15392;48.912;8.380;2023-02-01T16:41:12;4.70;;;4.30;;
28086;SDS011;15392;48.912;8.380;2023-02-01T16:43:39;3.40;;;3.10;;
28086;SDS011;15392;48.912;8.380;2023-02-01T16:46:05;5.50;;;4.80;;
28086;SDS011;15392;48.912;8.380;2023-02-01T16:48:45;4.20;;;3.90;;
28086;SDS011;15392;48.912;8.380;2023-02-01T16:51:16;5.32;;;4.82;;
28086;SDS011;15392;48.912;8.380;2023-02-01T16:53:42;4.07;;;3.78;;
28086;SDS011;15392;48.912;8.380;2023-02-01T16:56:12;3.92;;;3.63;;
28086;SDS011;15392;48.912;8.380;2023-02-01T16:58:39;6.03;;;5.50;;
28086;SDS011;15392;48.912;8.380;2023-02-01T17:01:07;9.55;;;8.68;;
28086;SDS011;15392;48.912;8.380;2023-02-01T17:03:41;4.35;;;4.03;;
28086;SDS011;15392;48.912;8.380;2023-02-01T17:06:09;9.27;;;8.38;;
28086;SDS011;15392;48.912;8.380;2023-02-01T17:08:39;21.15;;;17.27;;
28086;SDS011;15392;48.912;8.380;2023-02-01T17:11:09;10.63;;;9.35;;
28086;SDS011;15392;48.912;8.380;2023-02-01T17:13:38;13.38;;;11.35;;
28086;SDS011;15392;48.912;8.380;2023-02-01T17:16:12;6.95;;;6.20;;
28086;SDS011;15392;48.912;8.380;2023-02-01T17:18:44;4.18;;;3.88;;
28086;SDS011;15392;48.912;8.380;2023-02-01T17:21:26;2.90;;;2.70;;
28086;SDS011;15392;48.912;8.380;2023-02-01T17:23:55;2.67;;;2.47;;
28086;SDS011;15392;48.912;8.380;2023-02-01T17:26:23;2.05;;;1.90;;
28086;SDS011;15392;48.912;8.380;2023-02-01T17:28:50;2.38;;;1.70;;
28086;SDS011;15392;48.912;8.380;2023-02-01T17:31:15;1.63;;;1.52;;
28086;SDS011;15392;48.912;8.380;2023-02-01T17:33:41;1.75;;;1.65;;
28086;SDS011;15392;48.912;8.380;2023-02-01T17:36:10;2.90;;;2.70;;
28086;SDS011;15392;48.912;8.380;2023-02-01T17:41:05;2.15;;;2.00;;
28086;SDS011;15392;48.912;8.380;2023-02-01T17:43:30;3.08;;;2.88;;
28086;SDS011;15392;48.912;8.380;2023-02-01T17:46:12;2.40;;;2.20;;
28086;SDS011;15392;48.912;8.380;2023-02-01T17:48:42;3.60;;;3.30;;
28086;SDS011;15392;48.912;8.380;2023-02-01T17:51:27;8.10;;;7.30;;
28086;SDS011;15392;48.912;8.380;2023-02-01T17:53:54;7.43;;;6.07;;
28086;SDS011;15392;48.912;8.380;2023-02-01T17:56:21;7.65;;;6.85;;
28086;SDS011;15392;48.912;8.380;2023-02-01T17:58:49;9.95;;;8.93;;
28086;SDS011;15392;48.912;8.380;2023-02-01T18:01:18;8.88;;;7.97;;
28086;SDS011;15392;48.912;8.380;2023-02-01T18:03:46;13.15;;;10.05;;
28086;SDS011;15392;48.912;8.380;2023-02-01T18:06:14;16.73;;;12.68;;
28086;SDS011;15392;48.912;8.380;2023-02-01T18:08:42;7.75;;;6.93;;
28086;SDS011;15392;48.912;8.380;2023-02-01T18:11:13;5.63;;;5.13;;
28086;SDS011;15392;48.912;8.380;2023-02-01T18:13:42;4.15;;;3.75;;
28086;SDS011;15392;48.912;8.380;2023-02-01T18:18:52;3.92;;;3.22;;
28086;SDS011;15392;48.912;8.380;2023-02-01T18:21:18;2.10;;;2.00;;
28086;SDS011;15392;48.912;8.380;2023-02-01T18:23:46;2.53;;;2.33;;